Terminal Aerodrome Forecast
Issued by NWS Birmingham, AL

Home | Current Version | Previous Version | Text Only | Print | Product List | Glossary On
Versions: 1 2 3 4 5 6 7 8 9 10 11 12 13 14 15 16 17 18 19 20
134
FTUS44 KBMX 230520
TAFBHM
TAF
KBHM 230520Z 2306/2406 06005KT P6SM SKC
     FM230800 06005KT P6SM BKN015
     FM231500 12005KT P6SM BKN025
     FM231800 15005KT P6SM SCT035=

USA.gov is the U.S. government's official web portal to all federal, state and local government web resources and services.